sensor_id;sensor_type;location;lat;lon;timestamp;temperature;humidity
71672;DHT22;62112;45.638;11.714;2022-12-07T00:01:44;20.10;89.40
71672;DHT22;62112;45.638;11.714;2022-12-07T00:04:13;20.10;89.30
71672;DHT22;62112;45.638;11.714;2022-12-07T00:06:41;20.00;89.30
71672;DHT22;62112;45.638;11.714;2022-12-07T00:09:11;20.00;89.20
71672;DHT22;62112;45.638;11.714;2022-12-07T00:11:38;20.10;89.40
71672;DHT22;62112;45.638;11.714;2022-12-07T00:14:07;20.10;89.30
71672;DHT22;62112;45.638;11.714;2022-12-07T00:16:34;20.00;89.30
71672;DHT22;62112;45.638;11.714;2022-12-07T00:19:00;20.00;89.30
71672;DHT22;62112;45.638;11.714;2022-12-07T00:21:28;20.10;89.30
71672;DHT22;62112;45.638;11.714;2022-12-07T00:23:55;20.10;89.40
71672;DHT22;62112;45.638;11.714;2022-12-07T00:26:24;20.10;89.30
71672;DHT22;62112;45.638;11.714;2022-12-07T00:28:53;20.10;89.40
71672;DHT22;62112;45.638;11.714;2022-12-07T00:31:20;20.10;89.20
71672;DHT22;62112;45.638;11.714;2022-12-07T00:33:47;20.10;89.20
71672;DHT22;62112;45.638;11.714;2022-12-07T00:36:16;20.00;89.30
71672;DHT22;62112;45.638;11.714;2022-12-07T00:38:42;20.10;89.30
71672;DHT22;62112;45.638;11.714;2022-12-07T00:41:13;20.10;89.30
71672;DHT22;62112;45.638;11.714;2022-12-07T00:43:40;20.00;89.40
71672;DHT22;62112;45.638;11.714;2022-12-07T00:46:07;20.00;89.10
71672;DHT22;62112;45.638;11.714;2022-12-07T00:48:33;20.00;89.30
71672;DHT22;62112;45.638;11.714;2022-12-07T00:50:59;20.10;89.30
71672;DHT22;62112;45.638;11.714;2022-12-07T00:53:26;20.10;89.40
71672;DHT22;62112;45.638;11.714;2022-12-07T00:55:51;20.00;89.30
71672;DHT22;62112;45.638;11.714;2022-12-07T00:58:19;20.10;89.20
71672;DHT22;62112;45.638;11.714;2022-12-07T01:00:45;20.10;89.50
71672;DHT22;62112;45.638;11.714;2022-12-07T01:03:12;20.00;89.20
71672;DHT22;62112;45.638;11.714;2022-12-07T01:05:38;20.10;89.40
71672;DHT22;62112;45.638;11.714;2022-12-07T01:08:05;20.00;89.30
71672;DHT22;62112;45.638;11.714;2022-12-07T01:10:31;20.10;89.30
71672;DHT22;62112;45.638;11.714;2022-12-07T01:12:58;20.00;89.30
71672;DHT22;62112;45.638;11.714;2022-12-07T01:15:25;20.00;89.20
71672;DHT22;62112;45.638;11.714;2022-12-07T01:17:51;20.00;89.30
71672;DHT22;62112;45.638;11.714;2022-12-07T01:20:17;20.00;89.20
71672;DHT22;62112;45.638;11.714;2022-12-07T01:22:43;20.00;89.40
71672;DHT22;62112;45.638;11.714;2022-12-07T01:25:10;20.00;89.30
71672;DHT22;62112;45.638;11.714;2022-12-07T01:27:37;20.00;89.30
71672;DHT22;62112;45.638;11.714;2022-12-07T01:30:05;20.00;89.30
71672;DHT22;62112;45.638;11.714;2022-12-07T01:32:32;19.90;89.30
71672;DHT22;62112;45.638;11.714;2022-12-07T01:34:58;20.00;89.30
71672;DHT22;62112;45.638;11.714;2022-12-07T01:37:23;20.00;89.20
71672;DHT22;62112;45.638;11.714;2022-12-07T01:39:50;20.00;89.30
71672;DHT22;62112;45.638;11.714;2022-12-07T01:42:18;20.00;89.40
71672;DHT22;62112;45.638;11.714;2022-12-07T01:48:04;19.90;89.30
71672;DHT22;62112;45.638;11.714;2022-12-07T01:50:31;19.90;89.30
71672;DHT22;62112;45.638;11.714;2022-12-07T01:52:59;19.90;89.40
71672;DHT22;62112;45.638;11.714;2022-12-07T01:55:26;20.00;89.30
71672;DHT22;62112;45.638;11.714;2022-12-07T01:57:54;19.90;89.20
71672;DHT22;62112;45.638;11.714;2022-12-07T02:00:21;20.00;89.20
71672;DHT22;62112;45.638;11.714;2022-12-07T02:05:14;20.00;89.30
71672;DHT22;62112;45.638;11.714;2022-12-07T02:07:41;19.90;89.10
71672;DHT22;62112;45.638;11.714;2022-12-07T02:10:16;20.00;89.30
71672;DHT22;62112;45.638;11.714;2022-12-07T02:12:47;19.90;89.40
71672;DHT22;62112;45.638;11.714;2022-12-07T02:15:14;20.00;89.40
71672;DHT22;62112;45.638;11.714;2022-12-07T02:17:49;19.90;89.40
71672;DHT22;62112;45.638;11.714;2022-12-07T02:20:30;19.90;89.30
71672;DHT22;62112;45.638;11.714;2022-12-07T02:30:45;19.90;89.30
71672;DHT22;62112;45.638;11.714;2022-12-07T02:33:35;19.80;89.10
71672;DHT22;62112;45.638;11.714;2022-12-07T02:36:12;19.80;89.30
71672;DHT22;62112;45.638;11.714;2022-12-07T02:38:59;19.80;89.40
71672;DHT22;62112;45.638;11.714;2022-12-07T02:41:36;19.80;89.40
71672;DHT22;62112;45.638;11.714;2022-12-07T02:44:08;19.80;89.20
71672;DHT22;62112;45.638;11.714;2022-12-07T02:46:45;19.80;89.20
71672;DHT22;62112;45.638;11.714;2022-12-07T02:49:13;19.80;89.30
71672;DHT22;62112;45.638;11.714;2022-12-07T02:51:40;19.80;89.20
71672;DHT22;62112;45.638;11.714;2022-12-07T02:54:17;19.80;89.20
71672;DHT22;62112;45.638;11.714;2022-12-07T03:02:11;19.80;89.20
71672;DHT22;62112;45.638;11.714;2022-12-07T03:05:11;19.80;89.20
71672;DHT22;62112;45.638;11.714;2022-12-07T03:11:02;19.70;89.30
71672;DHT22;62112;45.638;11.714;2022-12-07T03:13:48;19.80;89.20
71672;DHT22;62112;45.638;11.714;2022-12-07T03:16:21;19.80;89.20
71672;DHT22;62112;45.638;11.714;2022-12-07T03:19:00;19.70;89.10
71672;DHT22;62112;45.638;11.714;2022-12-07T03:21:41;19.80;89.30
71672;DHT22;62112;45.638;11.714;2022-12-07T03:24:23;19.80;89.20
71672;DHT22;62112;45.638;11.714;2022-12-07T03:26:59;19.70;89.20
71672;DHT22;62112;45.638;11.714;2022-12-07T03:29:40;19.70;89.20
71672;DHT22;62112;45.638;11.714;2022-12-07T03:34:58;19.70;89.10
71672;DHT22;62112;45.638;11.714;2022-12-07T03:37:37;19.70;89.20
71672;DHT22;62112;45.638;11.714;2022-12-07T03:42:37;19.70;89.20
71672;DHT22;62112;45.638;11.714;2022-12-07T03:45:04;19.70;89.20
71672;DHT22;62112;45.638;11.714;2022-12-07T03:51:00;19.60;89.20
71672;DHT22;62112;45.638;11.714;2022-12-07T03:53:24;19.70;89.30
71672;DHT22;62112;45.638;11.714;2022-12-07T03:55:53;19.60;89.20
71672;DHT22;62112;45.638;11.714;2022-12-07T03:58:20;19.70;89.30
71672;DHT22;62112;45.638;11.714;2022-12-07T04:00:49;19.60;89.30
71672;DHT22;62112;45.638;11.714;2022-12-07T04:03:15;19.70;89.00
71672;DHT22;62112;45.638;11.714;2022-12-07T04:05:42;19.60;89.10
71672;DHT22;62112;45.638;11.714;2022-12-07T04:08:08;19.60;89.30
71672;DHT22;62112;45.638;11.714;2022-12-07T04:10:35;19.60;89.30
71672;DHT22;62112;45.638;11.714;2022-12-07T04:13:01;19.60;89.20
71672;DHT22;62112;45.638;11.714;2022-12-07T04:15:27;19.70;89.20
71672;DHT22;62112;45.638;11.714;2022-12-07T04:17:53;19.60;89.20
71672;DHT22;62112;45.638;11.714;2022-12-07T04:20:20;19.60;89.10
71672;DHT22;62112;45.638;11.714;2022-12-07T04:22:46;19.60;89.10
71672;DHT22;62112;45.638;11.714;2022-12-07T04:25:12;19.60;89.20
71672;DHT22;62112;45.638;11.714;2022-12-07T04:27:38;19.60;89.20
71672;DHT22;62112;45.638;11.714;2022-12-07T04:30:04;19.60;89.10
71672;DHT22;62112;45.638;11.714;2022-12-07T04:32:31;19.70;89.20
71672;DHT22;62112;45.638;11.714;2022-12-07T04:34:56;19.60;89.20
71672;DHT22;62112;45.638;11.714;2022-12-07T04:37:23;19.60;89.30
71672;DHT22;62112;45.638;11.714;2022-12-07T04:39:49;19.60;89.20
71672;DHT22;62112;45.638;11.714;2022-12-07T04:42:17;19.50;89.30
71672;DHT22;62112;45.638;11.714;2022-12-07T04:44:45;19.60;89.20
71672;DHT22;62112;45.638;11.714;2022-12-07T04:47:12;19.60;89.20
71672;DHT22;62112;45.638;11.714;2022-12-07T04:49:38;19.60;89.10
71672;DHT22;62112;45.638;11.714;2022-12-07T04:52:04;19.50;89.10
71672;DHT22;62112;45.638;11.714;2022-12-07T04:54:30;19.50;89.00
71672;DHT22;62112;45.638;11.714;2022-12-07T04:56:56;19.60;89.10
71672;DHT22;62112;45.638;11.714;2022-12-07T04:59:23;19.60;89.20
71672;DHT22;62112;45.638;11.714;2022-12-07T05:01:48;19.60;89.10
71672;DHT22;62112;45.638;11.714;2022-12-07T05:04:15;19.60;89.20
71672;DHT22;62112;45.638;11.714;2022-12-07T05:06:41;19.50;89.00
71672;DHT22;62112;45.638;11.714;2022-12-07T05:09:10;19.50;89.10
71672;DHT22;62112;45.638;11.714;2022-12-07T05:11:38;19.50;89.10
71672;DHT22;62112;45.638;11.714;2022-12-07T05:14:09;19.60;89.10
71672;DHT22;62112;45.638;11.714;2022-12-07T05:16:36;19.50;89.20
71672;DHT22;62112;45.638;11.714;2022-12-07T05:19:04;19.50;89.10
71672;DHT22;62112;45.638;11.714;2022-12-07T05:21:31;19.50;89.00
71672;DHT22;62112;45.638;11.714;2022-12-07T05:23:57;19.50;89.10
71672;DHT22;62112;45.638;11.714;2022-12-07T05:26:23;19.60;89.10
71672;DHT22;62112;45.638;11.714;2022-12-07T05:28:54;19.50;89.00
71672;DHT22;62112;45.638;11.714;2022-12-07T05:31:20;19.50;89.00
71672;DHT22;62112;45.638;11.714;2022-12-07T05:33:46;19.50;89.00
71672;DHT22;62112;45.638;11.714;2022-12-07T05:36:12;19.50;89.00
71672;DHT22;62112;45.638;11.714;2022-12-07T05:38:39;19.50;89.10
71672;DHT22;62112;45.638;11.714;2022-12-07T05:41:06;19.50;89.10
71672;DHT22;62112;45.638;11.714;2022-12-07T05:43:33;19.50;89.00
71672;DHT22;62112;45.638;11.714;2022-12-07T05:45:59;19.40;89.10
71672;DHT22;62112;45.638;11.714;2022-12-07T05:48:25;19.50;89.10
71672;DHT22;62112;45.638;11.714;2022-12-07T05:50:52;19.40;89.10
71672;DHT22;62112;45.638;11.714;2022-12-07T05:53:18;19.50;89.10
71672;DHT22;62112;45.638;11.714;2022-12-07T05:55:44;19.50;89.10
71672;DHT22;62112;45.638;11.714;2022-12-07T05:58:10;19.40;89.00
71672;DHT22;62112;45.638;11.714;2022-12-07T06:00:55;19.50;89.10
71672;DHT22;62112;45.638;11.714;2022-12-07T06:03:26;19.30;88.90
71672;DHT22;62112;45.638;11.714;2022-12-07T06:05:53;19.40;89.00
71672;DHT22;62112;45.638;11.714;2022-12-07T06:08:19;19.40;89.10
71672;DHT22;62112;45.638;11.714;2022-12-07T06:10:47;19.40;89.00
71672;DHT22;62112;45.638;11.714;2022-12-07T06:13:33;19.40;89.20
71672;DHT22;62112;45.638;11.714;2022-12-07T06:15:58;19.40;88.90
71672;DHT22;62112;45.638;11.714;2022-12-07T06:18:24;19.40;88.90
71672;DHT22;62112;45.638;11.714;2022-12-07T06:20:50;19.40;89.10
71672;DHT22;62112;45.638;11.714;2022-12-07T06:23:16;19.40;89.00
71672;DHT22;62112;45.638;11.714;2022-12-07T06:25:45;19.40;89.00
71672;DHT22;62112;45.638;11.714;2022-12-07T06:28:11;19.30;88.90
71672;DHT22;62112;45.638;11.714;2022-12-07T06:30:37;19.40;89.00
71672;DHT22;62112;45.638;11.714;2022-12-07T06:33:03;19.40;89.00
71672;DHT22;62112;45.638;11.714;2022-12-07T06:35:28;19.30;88.90
71672;DHT22;62112;45.638;11.714;2022-12-07T06:37:54;19.40;89.20
71672;DHT22;62112;45.638;11.714;2022-12-07T06:40:20;19.30;89.00
71672;DHT22;62112;45.638;11.714;2022-12-07T06:42:46;19.30;89.00
71672;DHT22;62112;45.638;11.714;2022-12-07T06:45:12;19.40;89.00
71672;DHT22;62112;45.638;11.714;2022-12-07T06:47:37;19.30;89.00
71672;DHT22;62112;45.638;11.714;2022-12-07T06:50:04;19.30;88.90
71672;DHT22;62112;45.638;11.714;2022-12-07T06:52:33;19.30;88.90
71672;DHT22;62112;45.638;11.714;2022-12-07T06:55:03;19.30;89.00
71672;DHT22;62112;45.638;11.714;2022-12-07T06:57:31;19.30;89.10
71672;DHT22;62112;45.638;11.714;2022-12-07T06:59:57;19.30;88.90
71672;DHT22;62112;45.638;11.714;2022-12-07T07:02:23;19.30;89.00
71672;DHT22;62112;45.638;11.714;2022-12-07T07:04:49;19.30;88.90
71672;DHT22;62112;45.638;11.714;2022-12-07T07:07:15;19.30;88.90
71672;DHT22;62112;45.638;11.714;2022-12-07T07:09:40;19.30;88.80
71672;DHT22;62112;45.638;11.714;2022-12-07T07:12:06;19.30;89.00
71672;DHT22;62112;45.638;11.714;2022-12-07T07:14:32;19.40;88.90
71672;DHT22;62112;45.638;11.714;2022-12-07T07:16:58;19.40;88.80
71672;DHT22;62112;45.638;11.714;2022-12-07T07:19:24;19.40;88.90
71672;DHT22;62112;45.638;11.714;2022-12-07T07:21:50;19.30;89.10
71672;DHT22;62112;45.638;11.714;2022-12-07T07:24:15;19.40;89.20
71672;DHT22;62112;45.638;11.714;2022-12-07T07:26:42;19.40;89.30
71672;DHT22;62112;45.638;11.714;2022-12-07T07:29:07;19.50;89.40
71672;DHT22;62112;45.638;11.714;2022-12-07T07:31:38;19.50;89.40
71672;DHT22;62112;45.638;11.714;2022-12-07T07:34:20;19.60;89.30
71672;DHT22;62112;45.638;11.714;2022-12-07T07:36:58;19.50;89.30
71672;DHT22;62112;45.638;11.714;2022-12-07T07:39:27;19.60;89.20
71672;DHT22;62112;45.638;11.714;2022-12-07T07:41:56;19.60;89.10
71672;DHT22;62112;45.638;11.714;2022-12-07T07:44:31;19.80;89.10
71672;DHT22;62112;45.638;11.714;2022-12-07T07:46:57;19.70;89.10
71672;DHT22;62112;45.638;11.714;2022-12-07T07:49:23;19.80;89.00
71672;DHT22;62112;45.638;11.714;2022-12-07T07:51:49;19.80;89.00
71672;DHT22;62112;45.638;11.714;2022-12-07T07:54:15;19.90;88.90
71672;DHT22;62112;45.638;11.714;2022-12-07T07:56:41;19.90;88.80
71672;DHT22;62112;45.638;11.714;2022-12-07T07:59:07;20.00;88.60
71672;DHT22;62112;45.638;11.714;2022-12-07T08:01:34;20.00;88.70
71672;DHT22;62112;45.638;11.714;2022-12-07T08:04:00;20.10;88.70
71672;DHT22;62112;45.638;11.714;2022-12-07T08:06:26;20.20;88.50
71672;DHT22;62112;45.638;11.714;2022-12-07T08:08:52;20.20;88.40
71672;DHT22;62112;45.638;11.714;2022-12-07T08:11:18;20.40;88.20
71672;DHT22;62112;45.638;11.714;2022-12-07T08:13:48;20.40;88.10
71672;DHT22;62112;45.638;11.714;2022-12-07T08:16:13;20.50;87.90
71672;DHT22;62112;45.638;11.714;2022-12-07T08:18:42;20.50;87.80
71672;DHT22;62112;45.638;11.714;2022-12-07T08:21:12;20.70;87.70
71672;DHT22;62112;45.638;11.714;2022-12-07T08:23:38;20.80;87.60
71672;DHT22;62112;45.638;11.714;2022-12-07T08:26:06;20.80;87.40
71672;DHT22;62112;45.638;11.714;2022-12-07T08:28:33;21.00;85.90
71672;DHT22;62112;45.638;11.714;2022-12-07T08:31:12;21.00;86.00
71672;DHT22;62112;45.638;11.714;2022-12-07T08:33:38;21.30;85.40
71672;DHT22;62112;45.638;11.714;2022-12-07T08:36:08;21.30;85.60
71672;DHT22;62112;45.638;11.714;2022-12-07T08:38:35;21.50;85.40
71672;DHT22;62112;45.638;11.714;2022-12-07T08:41:01;21.60;85.40
71672;DHT22;62112;45.638;11.714;2022-12-07T08:43:27;21.60;85.40
71672;DHT22;62112;45.638;11.714;2022-12-07T08:46:15;21.70;85.30
71672;DHT22;62112;45.638;11.714;2022-12-07T08:48:56;21.80;84.70
71672;DHT22;62112;45.638;11.714;2022-12-07T08:51:23;21.90;84.80
71672;DHT22;62112;45.638;11.714;2022-12-07T08:53:50;22.00;85.00
71672;DHT22;62112;45.638;11.714;2022-12-07T08:56:18;22.00;85.10
71672;DHT22;62112;45.638;11.714;2022-12-07T08:58:45;22.00;84.90
71672;DHT22;62112;45.638;11.714;2022-12-07T09:01:11;22.00;84.90
71672;DHT22;62112;45.638;11.714;2022-12-07T09:03:37;22.20;84.90
71672;DHT22;62112;45.638;11.714;2022-12-07T09:06:03;22.20;84.70
71672;DHT22;62112;45.638;11.714;2022-12-07T09:08:33;22.30;84.60
71672;DHT22;62112;45.638;11.714;2022-12-07T09:11:00;22.40;84.40
71672;DHT22;62112;45.638;11.714;2022-12-07T09:13:26;22.30;84.50
71672;DHT22;62112;45.638;11.714;2022-12-07T09:15:52;22.40;84.60
71672;DHT22;62112;45.638;11.714;2022-12-07T09:18:18;22.40;84.50
71672;DHT22;62112;45.638;11.714;2022-12-07T09:20:43;22.50;84.50
71672;DHT22;62112;45.638;11.714;2022-12-07T09:23:09;22.50;84.30
71672;DHT22;62112;45.638;11.714;2022-12-07T09:25:35;22.50;84.10
71672;DHT22;62112;45.638;11.714;2022-12-07T09:28:01;22.70;84.30
71672;DHT22;62112;45.638;11.714;2022-12-07T09:30:28;22.70;84.20
71672;DHT22;62112;45.638;11.714;2022-12-07T09:32:55;22.70;84.00
71672;DHT22;62112;45.638;11.714;2022-12-07T09:35:21;22.80;84.10
71672;DHT22;62112;45.638;11.714;2022-12-07T09:37:47;22.80;83.90
71672;DHT22;62112;45.638;11.714;2022-12-07T09:40:14;22.80;83.90
71672;DHT22;62112;45.638;11.714;2022-12-07T09:42:47;22.90;84.10
71672;DHT22;62112;45.638;11.714;2022-12-07T09:45:19;22.90;83.70
71672;DHT22;62112;45.638;11.714;2022-12-07T09:47:46;22.90;83.60
71672;DHT22;62112;45.638;11.714;2022-12-07T09:50:15;22.90;83.80
71672;DHT22;62112;45.638;11.714;2022-12-07T09:52:44;22.80;83.70
71672;DHT22;62112;45.638;11.714;2022-12-07T09:55:27;22.90;83.70
71672;DHT22;62112;45.638;11.714;2022-12-07T09:57:53;22.80;83.60
71672;DHT22;62112;45.638;11.714;2022-12-07T10:00:21;22.90;83.70
71672;DHT22;62112;45.638;11.714;2022-12-07T10:03:00;22.80;83.70
71672;DHT22;62112;45.638;11.714;2022-12-07T10:05:40;22.90;83.70
71672;DHT22;62112;45.638;11.714;2022-12-07T10:08:11;22.90;83.50
71672;DHT22;62112;45.638;11.714;2022-12-07T10:10:37;22.90;83.60
71672;DHT22;62112;45.638;11.714;2022-12-07T10:13:17;22.80;83.60
71672;DHT22;62112;45.638;11.714;2022-12-07T10:21:18;22.90;83.30
71672;DHT22;62112;45.638;11.714;2022-12-07T10:26:41;22.90;83.20
71672;DHT22;62112;45.638;11.714;2022-12-07T10:29:20;22.90;83.50
71672;DHT22;62112;45.638;11.714;2022-12-07T10:31:58;22.90;83.50
71672;DHT22;62112;45.638;11.714;2022-12-07T10:34:28;22.90;83.30
71672;DHT22;62112;45.638;11.714;2022-12-07T10:39:51;22.90;83.30
71672;DHT22;62112;45.638;11.714;2022-12-07T10:42:22;22.90;83.50
71672;DHT22;62112;45.638;11.714;2022-12-07T10:44:50;22.90;83.30
71672;DHT22;62112;45.638;11.714;2022-12-07T10:47:36;22.90;83.30
71672;DHT22;62112;45.638;11.714;2022-12-07T10:50:52;22.90;83.30
71672;DHT22;62112;45.638;11.714;2022-12-07T10:53:23;23.00;83.30
71672;DHT22;62112;45.638;11.714;2022-12-07T11:07:02;22.90;83.20
71672;DHT22;62112;45.638;11.714;2022-12-07T11:26:04;22.90;83.00
71672;DHT22;62112;45.638;11.714;2022-12-07T11:28:58;22.90;83.20
71672;DHT22;62112;45.638;11.714;2022-12-07T11:34:34;22.90;83.00
71672;DHT22;62112;45.638;11.714;2022-12-07T11:37:02;22.80;83.30
71672;DHT22;62112;45.638;11.714;2022-12-07T11:39:39;22.80;83.20
71672;DHT22;62112;45.638;11.714;2022-12-07T11:42:27;22.80;83.20
71672;DHT22;62112;45.638;11.714;2022-12-07T11:47:48;22.80;83.30
71672;DHT22;62112;45.638;11.714;2022-12-07T11:50:37;22.70;83.30
71672;DHT22;62112;45.638;11.714;2022-12-07T11:53:35;22.70;83.40
71672;DHT22;62112;45.638;11.714;2022-12-07T12:03:53;22.70;83.50
71672;DHT22;62112;45.638;11.714;2022-12-07T12:06:22;22.60;83.40
71672;DHT22;62112;45.638;11.714;2022-12-07T12:23:11;22.50;83.80
71672;DHT22;62112;45.638;11.714;2022-12-07T12:33:55;22.50;83.70
71672;DHT22;62112;45.638;11.714;2022-12-07T12:36:45;22.50;84.00
71672;DHT22;62112;45.638;11.714;2022-12-07T12:39:18;22.50;83.80
71672;DHT22;62112;45.638;11.714;2022-12-07T12:41:50;22.60;83.90
71672;DHT22;62112;45.638;11.714;2022-12-07T12:46:49;22.50;84.00
71672;DHT22;62112;45.638;11.714;2022-12-07T12:54:38;22.60;83.90
71672;DHT22;62112;45.638;11.714;2022-12-07T12:57:24;22.60;84.10
71672;DHT22;62112;45.638;11.714;2022-12-07T13:15:49;22.70;84.00
71672;DHT22;62112;45.638;11.714;2022-12-07T13:29:15;22.60;84.00
71672;DHT22;62112;45.638;11.714;2022-12-07T13:31:50;22.70;83.70
71672;DHT22;62112;45.638;11.714;2022-12-07T13:34:30;22.70;83.80
71672;DHT22;62112;45.638;11.714;2022-12-07T13:36:57;22.70;83.70
71672;DHT22;62112;45.638;11.714;2022-12-07T13:39:26;22.70;83.90
71672;DHT22;62112;45.638;11.714;2022-12-07T13:41:59;22.70;83.80
71672;DHT22;62112;45.638;11.714;2022-12-07T13:44:28;22.70;83.70
71672;DHT22;62112;45.638;11.714;2022-12-07T13:47:16;22.60;83.80
71672;DHT22;62112;45.638;11.714;2022-12-07T13:49:52;22.70;83.70
71672;DHT22;62112;45.638;11.714;2022-12-07T13:52:31;22.70;83.80
71672;DHT22;62112;45.638;11.714;2022-12-07T13:55:11;22.70;83.80
71672;DHT22;62112;45.638;11.714;2022-12-07T13:57:39;22.70;83.80
71672;DHT22;62112;45.638;11.714;2022-12-07T14:00:13;22.70;83.80
71672;DHT22;62112;45.638;11.714;2022-12-07T14:05:27;22.60;83.70
71672;DHT22;62112;45.638;11.714;2022-12-07T14:10:29;22.70;83.70
71672;DHT22;62112;45.638;11.714;2022-12-07T14:12:56;22.70;83.80
71672;DHT22;62112;45.638;11.714;2022-12-07T14:15:25;22.70;83.70
71672;DHT22;62112;45.638;11.714;2022-12-07T14:17:54;22.60;83.70
71672;DHT22;62112;45.638;11.714;2022-12-07T14:20:37;22.70;83.70
71672;DHT22;62112;45.638;11.714;2022-12-07T14:23:04;22.70;83.70
71672;DHT22;62112;45.638;11.714;2022-12-07T14:28:28;22.70;83.80
71672;DHT22;62112;45.638;11.714;2022-12-07T14:30:55;22.60;83.80
71672;DHT22;62112;45.638;11.714;2022-12-07T14:33:21;22.70;83.80
71672;DHT22;62112;45.638;11.714;2022-12-07T14:35:47;22.70;83.70
71672;DHT22;62112;45.638;11.714;2022-12-07T14:38:15;22.60;83.90
71672;DHT22;62112;45.638;11.714;2022-12-07T14:40:41;22.60;83.70
71672;DHT22;62112;45.638;11.714;2022-12-07T14:43:12;22.50;83.80
71672;DHT22;62112;45.638;11.714;2022-12-07T14:45:39;22.60;83.80
71672;DHT22;62112;45.638;11.714;2022-12-07T14:48:06;22.50;83.60
71672;DHT22;62112;45.638;11.714;2022-12-07T14:50:37;22.50;83.70
71672;DHT22;62112;45.638;11.714;2022-12-07T14:53:15;22.40;83.60
71672;DHT22;62112;45.638;11.714;2022-12-07T14:55:42;22.30;83.60
71672;DHT22;62112;45.638;11.714;2022-12-07T14:58:16;22.30;83.70
71672;DHT22;62112;45.638;11.714;2022-12-07T15:00:42;22.30;83.80
71672;DHT22;62112;45.638;11.714;2022-12-07T15:03:08;22.20;83.80
71672;DHT22;62112;45.638;11.714;2022-12-07T15:05:34;22.20;83.70
71672;DHT22;62112;45.638;11.714;2022-12-07T15:08:01;22.20;83.80
71672;DHT22;62112;45.638;11.714;2022-12-07T15:10:33;22.20;83.70
71672;DHT22;62112;45.638;11.714;2022-12-07T15:13:02;22.10;83.80
71672;DHT22;62112;45.638;11.714;2022-12-07T15:15:48;22.10;83.90
71672;DHT22;62112;45.638;11.714;2022-12-07T15:18:14;22.00;83.70
71672;DHT22;62112;45.638;11.714;2022-12-07T15:20:40;21.90;83.90
71672;DHT22;62112;45.638;11.714;2022-12-07T15:23:06;22.00;83.90
71672;DHT22;62112;45.638;11.714;2022-12-07T15:25:33;21.90;83.90
71672;DHT22;62112;45.638;11.714;2022-12-07T15:27:59;21.90;83.90
71672;DHT22;62112;45.638;11.714;2022-12-07T15:30:25;21.90;84.10
71672;DHT22;62112;45.638;11.714;2022-12-07T15:32:52;21.80;84.10
71672;DHT22;62112;45.638;11.714;2022-12-07T15:35:18;21.80;84.20
71672;DHT22;62112;45.638;11.714;2022-12-07T15:37:45;21.70;84.00
71672;DHT22;62112;45.638;11.714;2022-12-07T15:40:12;21.80;84.10
71672;DHT22;62112;45.638;11.714;2022-12-07T15:42:38;21.80;84.10
71672;DHT22;62112;45.638;11.714;2022-12-07T15:45:05;21.70;84.10
71672;DHT22;62112;45.638;11.714;2022-12-07T15:47:37;21.70;84.30
71672;DHT22;62112;45.638;11.714;2022-12-07T15:50:05;21.60;84.40
71672;DHT22;62112;45.638;11.714;2022-12-07T15:52:32;21.60;84.20
71672;DHT22;62112;45.638;11.714;2022-12-07T15:54:58;21.60;84.30
71672;DHT22;62112;45.638;11.714;2022-12-07T15:57:32;21.50;84.30
71672;DHT22;62112;45.638;11.714;2022-12-07T15:59:58;21.60;84.40
71672;DHT22;62112;45.638;11.714;2022-12-07T16:02:24;21.50;84.40
71672;DHT22;62112;45.638;11.714;2022-12-07T16:04:51;21.50;84.30
71672;DHT22;62112;45.638;11.714;2022-12-07T16:07:17;21.50;84.40
71672;DHT22;62112;45.638;11.714;2022-12-07T16:09:45;21.40;84.60
71672;DHT22;62112;45.638;11.714;2022-12-07T16:12:11;21.40;84.50
71672;DHT22;62112;45.638;11.714;2022-12-07T16:14:38;21.40;84.50
71672;DHT22;62112;45.638;11.714;2022-12-07T16:17:05;21.40;84.60
71672;DHT22;62112;45.638;11.714;2022-12-07T16:19:34;21.20;84.30
71672;DHT22;62112;45.638;11.714;2022-12-07T16:22:00;21.30;84.30
71672;DHT22;62112;45.638;11.714;2022-12-07T16:24:26;21.30;84.30
71672;DHT22;62112;45.638;11.714;2022-12-07T16:26:52;21.30;84.40
71672;DHT22;62112;45.638;11.714;2022-12-07T16:29:20;21.30;84.50
71672;DHT22;62112;45.638;11.714;2022-12-07T16:31:46;21.20;84.50
71672;DHT22;62112;45.638;11.714;2022-12-07T16:34:13;21.30;84.50
71672;DHT22;62112;45.638;11.714;2022-12-07T16:36:38;21.20;84.50
71672;DHT22;62112;45.638;11.714;2022-12-07T16:39:05;21.10;84.50
71672;DHT22;62112;45.638;11.714;2022-12-07T16:41:31;21.10;84.60
71672;DHT22;62112;45.638;11.714;2022-12-07T16:44:05;21.00;84.70
71672;DHT22;62112;45.638;11.714;2022-12-07T16:46:33;21.10;84.70
71672;DHT22;62112;45.638;11.714;2022-12-07T16:48:59;21.20;84.60
71672;DHT22;62112;45.638;11.714;2022-12-07T16:51:25;21.00;84.80
71672;DHT22;62112;45.638;11.714;2022-12-07T16:53:52;21.00;84.60
71672;DHT22;62112;45.638;11.714;2022-12-07T16:56:19;21.00;84.70
71672;DHT22;62112;45.638;11.714;2022-12-07T16:58:45;20.90;84.80
71672;DHT22;62112;45.638;11.714;2022-12-07T17:01:18;20.90;84.80
71672;DHT22;62112;45.638;11.714;2022-12-07T17:03:45;21.00;84.80
71672;DHT22;62112;45.638;11.714;2022-12-07T17:06:25;21.00;85.00
71672;DHT22;62112;45.638;11.714;2022-12-07T17:08:53;21.00;84.90
71672;DHT22;62112;45.638;11.714;2022-12-07T17:11:21;20.80;86.20
71672;DHT22;62112;45.638;11.714;2022-12-07T17:13:48;20.90;85.00
71672;DHT22;62112;45.638;11.714;2022-12-07T17:16:33;20.90;86.20
71672;DHT22;62112;45.638;11.714;2022-12-07T17:19:04;20.80;86.40
71672;DHT22;62112;45.638;11.714;2022-12-07T17:21:31;20.80;86.40
71672;DHT22;62112;45.638;11.714;2022-12-07T17:23:59;20.80;86.50
71672;DHT22;62112;45.638;11.714;2022-12-07T17:26:26;20.80;86.40
71672;DHT22;62112;45.638;11.714;2022-12-07T17:28:52;20.80;86.60
71672;DHT22;62112;45.638;11.714;2022-12-07T17:31:20;20.80;86.60
71672;DHT22;62112;45.638;11.714;2022-12-07T17:33:46;20.80;86.60
71672;DHT22;62112;45.638;11.714;2022-12-07T17:38:39;20.70;86.70
71672;DHT22;62112;45.638;11.714;2022-12-07T17:41:20;20.80;86.80
71672;DHT22;62112;45.638;11.714;2022-12-07T17:44:07;20.70;86.80
71672;DHT22;62112;45.638;11.714;2022-12-07T17:46:34;20.70;86.60
71672;DHT22;62112;45.638;11.714;2022-12-07T17:49:00;20.70;86.70
71672;DHT22;62112;45.638;11.714;2022-12-07T17:51:26;20.70;86.70
71672;DHT22;62112;45.638;11.714;2022-12-07T17:54:11;20.70;86.90
71672;DHT22;62112;45.638;11.714;2022-12-07T17:56:37;20.70;86.80
71672;DHT22;62112;45.638;11.714;2022-12-07T17:59:04;20.70;86.90
71672;DHT22;62112;45.638;11.714;2022-12-07T18:01:31;20.60;86.90